createdAt,value
2018-02-05T00:00:06.618Z,25.40
2018-02-05T00:02:34.181Z,33.30
2018-02-05T00:05:01.754Z,36.47
2018-02-05T00:07:29.333Z,33.87
2018-02-05T00:09:56.894Z,32.10
2018-02-05T00:12:24.479Z,33.50
2018-02-05T00:14:52.100Z,35.20
2018-02-05T00:17:19.718Z,46.93
2018-02-05T00:19:47.277Z,51.70
2018-02-05T00:22:14.876Z,61.53
2018-02-05T00:24:43.358Z,58.33
2018-02-05T00:27:10.958Z,50.40
2018-02-05T00:29:38.534Z,49.77
2018-02-05T00:32:06.094Z,35.33
2018-02-05T00:34:33.801Z,31.80
2018-02-05T00:37:01.362Z,33.80
2018-02-05T00:39:28.984Z,32.97
2018-02-05T00:41:56.623Z,45.17
2018-02-05T00:44:29.149Z,31.37
2018-02-05T00:46:56.780Z,42.17
2018-02-05T00:49:24.355Z,43.00
2018-02-05T00:51:51.992Z,38.87
2018-02-05T00:54:19.686Z,35.10
2018-02-05T00:56:47.255Z,45.43
2018-02-05T00:59:14.888Z,43.97
2018-02-05T01:01:42.523Z,38.07
2018-02-05T01:04:10.090Z,44.13
2018-02-05T01:06:37.672Z,42.03
2018-02-05T01:09:05.288Z,46.13
2018-02-05T01:11:32.873Z,60.67
2018-02-05T01:14:00.453Z,54.07
2018-02-05T01:16:28.123Z,50.30
2018-02-05T01:18:55.686Z,37.87
2018-02-05T01:21:23.302Z,46.13
2018-02-05T01:23:50.870Z,44.50
2018-02-05T01:26:18.437Z,49.73
2018-02-05T01:28:46.015Z,46.10
2018-02-05T01:31:13.641Z,41.37
2018-02-05T01:33:41.332Z,51.73
2018-02-05T01:36:08.913Z,29.30
2018-02-05T01:38:36.537Z,37.13
2018-02-05T01:41:04.112Z,36.33
2018-02-05T01:43:31.692Z,39.87
2018-02-05T01:45:59.328Z,37.50
2018-02-05T01:48:26.890Z,37.70
2018-02-05T01:50:54.659Z,37.63
2018-02-05T01:53:22.283Z,44.10
2018-02-05T01:55:49.912Z,43.90
2018-02-05T01:58:17.493Z,36.20
2018-02-05T02:00:45.118Z,34.03
2018-02-05T02:03:12.703Z,35.53
2018-02-05T02:05:40.266Z,37.47
2018-02-05T02:08:07.895Z,38.67
2018-02-05T02:10:35.461Z,33.37
2018-02-05T02:13:03.021Z,40.87
2018-02-05T02:15:30.602Z,37.73
2018-02-05T02:17:58.170Z,40.97
2018-02-05T02:20:25.769Z,41.83
2018-02-05T02:22:53.365Z,44.63
2018-02-05T02:25:21.034Z,35.77
2018-02-05T02:27:48.649Z,35.67
2018-02-05T02:30:16.218Z,42.87
2018-02-05T02:32:43.794Z,36.07
2018-02-05T02:35:11.364Z,48.13
2018-02-05T02:37:38.935Z,63.83
2018-02-05T02:40:06.522Z,53.20
2018-02-05T02:42:34.230Z,46.30
2018-02-05T02:45:01.839Z,48.70
2018-02-05T02:47:29.437Z,39.57
2018-02-05T02:49:56.990Z,36.00
2018-02-05T02:52:24.554Z,40.03
2018-02-05T02:54:52.143Z,42.60
2018-02-05T02:57:19.779Z,39.13
2018-02-05T02:59:47.381Z,34.00
2018-02-05T03:02:14.987Z,39.47
2018-02-05T03:04:42.565Z,36.07
2018-02-05T03:07:10.214Z,39.57
2018-02-05T03:09:37.768Z,37.53
2018-02-05T03:12:05.346Z,31.50
2018-02-05T03:14:32.917Z,37.00
2018-02-05T03:17:00.538Z,48.67
2018-02-05T03:19:28.167Z,41.77
2018-02-05T03:21:55.734Z,37.70
2018-02-05T03:24:23.372Z,47.80
2018-02-05T03:26:51.013Z,35.60
2018-02-05T03:29:18.596Z,40.40
2018-02-05T03:31:46.230Z,38.50
2018-02-05T03:34:13.845Z,34.93
2018-02-05T03:36:41.451Z,41.10
2018-02-05T03:39:09.075Z,38.40
2018-02-05T03:41:36.720Z,42.17
2018-02-05T03:44:04.347Z,38.30
2018-02-05T03:46:31.940Z,37.73
2018-02-05T03:48:59.518Z,40.40
2018-02-05T03:51:27.126Z,63.00
2018-02-05T03:53:54.687Z,48.40
2018-02-05T03:56:22.317Z,48.33
2018-02-05T03:58:49.894Z,51.30
2018-02-05T04:01:17.466Z,43.40
2018-02-05T04:03:45.106Z,44.10
2018-02-05T04:06:12.686Z,53.80
2018-02-05T04:08:40.301Z,45.20
2018-02-05T04:11:07.870Z,39.37
2018-02-05T04:13:35.550Z,37.10
2018-02-05T04:16:03.270Z,33.57
2018-02-05T04:18:30.908Z,36.00
2018-02-05T04:20:58.484Z,35.40
2018-02-05T04:23:26.050Z,50.73
2018-02-05T04:25:53.663Z,54.33
2018-02-05T04:28:21.206Z,54.73
2018-02-05T04:30:48.774Z,58.23
2018-02-05T04:33:16.349Z,54.20
2018-02-05T04:35:43.918Z,58.50
2018-02-05T04:38:11.501Z,51.40
2018-02-05T04:40:39.070Z,53.57
2018-02-05T04:43:06.689Z,45.47
2018-02-05T04:45:34.263Z,40.90
2018-02-05T04:48:01.851Z,44.80
2018-02-05T04:50:29.417Z,45.47
2018-02-05T04:52:57.051Z,46.53
2018-02-05T04:55:24.620Z,53.67
2018-02-05T04:57:52.182Z,49.37
2018-02-05T05:00:19.785Z,47.50
2018-02-05T05:02:47.350Z,45.87
2018-02-05T05:05:14.959Z,37.47
2018-02-05T05:07:42.531Z,43.30
2018-02-05T05:10:10.089Z,77.17
2018-02-05T05:12:37.663Z,88.07
2018-02-05T05:15:05.227Z,107.07
2018-02-05T05:17:32.903Z,71.07
2018-02-05T05:20:00.529Z,70.23
2018-02-05T05:22:28.077Z,62.23
2018-02-05T05:24:55.661Z,69.97
2018-02-05T05:27:23.740Z,58.00
2018-02-05T05:29:51.354Z,51.57
2018-02-05T05:32:18.993Z,49.80
2018-02-05T05:34:46.803Z,55.77
2018-02-05T05:37:14.388Z,56.40
2018-02-05T05:39:41.955Z,64.13
2018-02-05T05:42:09.594Z,59.93
2018-02-05T05:44:37.156Z,59.87
2018-02-05T05:47:04.741Z,81.07
2018-02-05T05:49:32.378Z,50.37
2018-02-05T05:52:00.057Z,54.90
2018-02-05T05:54:27.701Z,61.93
2018-02-05T05:56:55.275Z,68.87
2018-02-05T05:59:22.859Z,85.90
2018-02-05T06:01:50.430Z,67.23
2018-02-05T06:04:18.127Z,79.73
2018-02-05T06:06:45.706Z,78.57
2018-02-05T06:09:13.390Z,77.67
2018-02-05T06:11:41.009Z,64.70
2018-02-05T06:14:08.579Z,86.37
2018-02-05T06:16:36.136Z,60.30
2018-02-05T06:19:04.001Z,64.57
2018-02-05T06:21:31.639Z,52.57
2018-02-05T06:23:59.207Z,60.43
2018-02-05T06:26:26.778Z,55.93
2018-02-05T06:28:54.433Z,72.27
2018-02-05T06:31:22.059Z,56.13
2018-02-05T06:33:49.710Z,52.67
2018-02-05T06:36:17.286Z,47.20
2018-02-05T06:38:44.885Z,54.53
2018-02-05T06:41:12.522Z,88.53
2018-02-05T06:43:40.098Z,84.90
2018-02-05T06:46:07.681Z,47.97
2018-02-05T06:48:35.311Z,39.03
2018-02-05T06:51:14.775Z,44.40
2018-02-05T06:53:54.151Z,53.77
2018-02-05T06:56:24.894Z,44.03
2018-02-05T06:58:52.468Z,45.60
2018-02-05T07:01:20.039Z,77.13
2018-02-05T07:03:47.679Z,65.73
2018-02-05T07:06:15.251Z,38.87
2018-02-05T07:08:42.830Z,46.70
2018-02-05T07:11:10.399Z,42.70
2018-02-05T07:13:38.018Z,39.57
2018-02-05T07:16:05.585Z,34.50
2018-02-05T07:18:33.218Z,30.30
2018-02-05T07:21:00.855Z,44.10
2018-02-05T07:23:28.478Z,34.60
2018-02-05T07:25:56.090Z,30.47
2018-02-05T07:28:23.657Z,25.97
2018-02-05T07:30:51.233Z,67.63
2018-02-05T07:33:18.799Z,44.60
2018-02-05T07:35:46.922Z,39.53
2018-02-05T07:38:14.562Z,32.07
2018-02-05T07:40:42.130Z,44.30
2018-02-05T07:43:09.703Z,51.27
2018-02-05T07:45:37.373Z,101.83
2018-02-05T07:48:04.949Z,51.10
2018-02-05T07:50:32.547Z,35.43
2018-02-05T07:53:00.127Z,37.53
2018-02-05T07:55:27.745Z,33.57
2018-02-05T07:57:55.346Z,44.40
2018-02-05T08:00:22.913Z,34.43
2018-02-05T08:02:50.542Z,36.63
2018-02-05T08:05:18.201Z,25.63
2018-02-05T08:07:45.787Z,22.80
2018-02-05T08:10:13.418Z,28.03
2018-02-05T08:12:41.049Z,40.13
2018-02-05T08:15:08.622Z,34.47
2018-02-05T08:17:36.203Z,27.13
2018-02-05T08:20:03.835Z,23.73
2018-02-05T08:22:31.406Z,22.60
2018-02-05T08:24:59.003Z,23.60
2018-02-05T08:27:26.636Z,22.80
2018-02-05T08:29:54.254Z,30.40
2018-02-05T08:32:21.837Z,27.37
2018-02-05T08:34:49.471Z,32.93
2018-02-05T08:37:17.117Z,23.03
2018-02-05T08:39:44.694Z,27.83
2018-02-05T08:42:12.342Z,37.27
2018-02-05T08:44:39.912Z,35.57
2018-02-05T08:47:07.541Z,31.23
2018-02-05T08:49:35.118Z,26.40
2018-02-05T08:52:02.690Z,37.50
2018-02-05T08:54:30.265Z,41.40
2018-02-05T08:56:57.829Z,43.27
2018-02-05T08:59:25.474Z,42.93
2018-02-05T09:01:53.020Z,30.93
2018-02-05T09:04:20.683Z,26.17
2018-02-05T09:06:48.251Z,19.70
2018-02-05T09:09:15.818Z,28.60
2018-02-05T09:11:43.446Z,22.97
2018-02-05T09:14:11.073Z,22.67
2018-02-05T09:16:38.722Z,36.03
2018-02-05T09:19:06.358Z,44.90
2018-02-05T09:21:33.969Z,30.10
2018-02-05T09:24:01.550Z,27.63
2018-02-05T09:26:29.117Z,19.53
2018-02-05T09:28:56.772Z,31.13
2018-02-05T09:31:24.395Z,31.43
2018-02-05T09:33:51.988Z,27.27
2018-02-05T09:36:19.567Z,21.87
2018-02-05T09:38:47.194Z,30.67
2018-02-05T09:41:14.770Z,34.63
2018-02-05T09:43:42.341Z,31.07
2018-02-05T09:46:09.983Z,25.43
2018-02-05T09:48:37.563Z,32.63
2018-02-05T09:51:05.211Z,32.23
2018-02-05T09:53:32.830Z,26.50
2018-02-05T09:56:00.516Z,22.23
2018-02-05T09:58:28.114Z,30.20
2018-02-05T10:00:55.694Z,26.10
2018-02-05T10:03:23.357Z,18.90
2018-02-05T10:05:50.995Z,29.87
2018-02-05T10:08:18.608Z,32.20
2018-02-05T10:10:46.183Z,26.23
2018-02-05T10:13:13.891Z,29.80
2018-02-05T10:15:41.538Z,36.60
2018-02-05T10:18:09.208Z,37.20
2018-02-05T10:20:36.773Z,33.30
2018-02-05T10:23:04.348Z,23.87
2018-02-05T10:25:31.923Z,23.40
2018-02-05T10:27:59.564Z,23.30
2018-02-05T10:30:27.242Z,26.90
2018-02-05T10:32:54.871Z,19.27
2018-02-05T10:35:22.551Z,28.17
2018-02-05T10:37:50.193Z,30.00
2018-02-05T10:40:17.758Z,19.40
2018-02-05T10:42:45.357Z,36.53
2018-02-05T10:45:12.945Z,27.67
2018-02-05T10:47:40.532Z,45.33
2018-02-05T10:50:08.178Z,37.57
2018-02-05T10:52:35.746Z,30.47
2018-02-05T10:55:03.338Z,28.57
2018-02-05T10:57:30.930Z,82.83
2018-02-05T10:59:58.567Z,59.43
2018-02-05T11:02:26.162Z,24.17
2018-02-05T11:04:53.787Z,36.63
2018-02-05T11:07:21.368Z,22.13
2018-02-05T11:09:49.009Z,27.37
2018-02-05T11:12:16.598Z,61.87
2018-02-05T11:14:44.177Z,67.43
2018-02-05T11:17:11.899Z,40.70
2018-02-05T11:19:39.499Z,38.90
2018-02-05T11:22:07.084Z,44.90
2018-02-05T11:24:34.659Z,25.30
2018-02-05T11:27:02.295Z,33.93
2018-02-05T11:29:29.886Z,20.33
2018-02-05T11:31:57.516Z,24.17
2018-02-05T11:34:25.142Z,21.97
2018-02-05T11:36:52.782Z,24.30
2018-02-05T11:39:20.354Z,30.13
2018-02-05T11:41:47.939Z,21.10
2018-02-05T11:44:15.580Z,19.13
2018-02-05T11:46:43.185Z,28.47
2018-02-05T11:49:10.812Z,20.50
2018-02-05T11:51:38.497Z,30.77
2018-02-05T11:54:06.134Z,16.70
2018-02-05T11:56:33.697Z,21.13
2018-02-05T11:59:01.277Z,21.03
2018-02-05T12:01:28.847Z,46.83
2018-02-05T12:03:56.426Z,32.97
2018-02-05T12:06:24.074Z,13.37
2018-02-05T12:08:51.706Z,22.20
2018-02-05T12:11:19.330Z,17.33
2018-02-05T12:13:46.950Z,17.37
2018-02-05T12:16:14.549Z,18.10
2018-02-05T12:18:42.110Z,21.80
2018-02-05T12:21:09.741Z,19.67
2018-02-05T12:23:37.350Z,29.93
2018-02-05T12:26:04.970Z,21.00
2018-02-05T12:28:32.601Z,24.47
2018-02-05T12:31:00.151Z,20.83
2018-02-05T12:33:27.715Z,18.63
2018-02-05T12:35:55.291Z,20.03
2018-02-05T12:38:22.866Z,24.50
2018-02-05T12:40:50.444Z,22.73
2018-02-05T12:43:18.125Z,20.47
2018-02-05T12:45:45.716Z,35.97
2018-02-05T12:48:13.405Z,29.70
2018-02-05T12:50:40.978Z,27.30
2018-02-05T12:53:08.653Z,31.30
2018-02-05T12:55:36.302Z,37.37
2018-02-05T12:58:03.902Z,15.63
2018-02-05T13:00:33.352Z,18.07
2018-02-05T13:03:08.460Z,21.10
2018-02-05T13:05:36.124Z,20.37
2018-02-05T13:08:03.701Z,26.00
2018-02-05T13:10:31.339Z,33.30
2018-02-05T13:12:58.972Z,19.50
2018-02-05T13:15:26.609Z,21.00
2018-02-05T13:17:54.249Z,22.77
2018-02-05T13:20:21.802Z,17.93
2018-02-05T13:22:49.380Z,33.37
2018-02-05T13:25:16.958Z,26.23
2018-02-05T13:27:44.525Z,21.33
2018-02-05T13:30:12.130Z,25.40
2018-02-05T13:32:39.744Z,20.70
2018-02-05T13:35:07.314Z,30.83
2018-02-05T13:37:34.885Z,58.50
2018-02-05T13:40:02.454Z,23.90
2018-02-05T13:42:30.098Z,26.53
2018-02-05T13:44:57.670Z,21.40
2018-02-05T13:47:25.321Z,26.60
2018-02-05T13:49:52.942Z,19.97
2018-02-05T13:52:20.562Z,22.70
2018-02-05T13:54:48.148Z,36.40
2018-02-05T13:57:15.728Z,24.83
2018-02-05T13:59:43.309Z,29.53
2018-02-05T14:02:10.892Z,40.30
2018-02-05T14:04:38.525Z,24.20
2018-02-05T14:07:06.091Z,19.03
2018-02-05T14:09:33.653Z,27.57
2018-02-05T14:12:01.226Z,19.40
2018-02-05T14:14:28.793Z,30.77
2018-02-05T14:16:56.366Z,21.83
2018-02-05T14:19:24.050Z,22.27
2018-02-05T14:21:51.688Z,21.33
2018-02-05T14:24:19.254Z,44.33
2018-02-05T14:26:46.823Z,28.40
2018-02-05T14:29:14.458Z,24.00
2018-02-05T14:31:42.104Z,27.40
2018-02-05T14:34:09.678Z,29.57
2018-02-05T14:36:37.242Z,39.33
2018-02-05T14:39:05.007Z,34.73
2018-02-05T14:41:32.634Z,51.43
2018-02-05T14:44:00.211Z,67.90
2018-02-05T14:46:27.787Z,38.40
2018-02-05T14:48:55.353Z,34.27
2018-02-05T14:51:22.936Z,36.30
2018-02-05T14:53:50.503Z,36.13
2018-02-05T14:56:18.193Z,37.13
2018-02-05T14:58:45.763Z,37.50
2018-02-05T15:01:13.394Z,36.90
2018-02-05T15:03:40.970Z,43.37
2018-02-05T15:06:08.600Z,50.40
2018-02-05T15:08:36.253Z,39.57
2018-02-05T15:11:03.899Z,43.90
2018-02-05T15:13:31.548Z,40.13
2018-02-05T15:15:59.114Z,47.83
2018-02-05T15:18:26.739Z,46.50
2018-02-05T15:20:54.388Z,44.63
2018-02-05T15:23:21.958Z,56.30
2018-02-05T15:25:49.535Z,66.17
2018-02-05T15:28:17.103Z,72.73
2018-02-05T15:30:44.794Z,77.03
2018-02-05T15:33:12.434Z,82.10
2018-02-05T15:35:40.070Z,110.90
2018-02-05T15:38:07.711Z,94.37
2018-02-05T15:40:35.282Z,77.73
2018-02-05T15:43:02.861Z,64.57
2018-02-05T15:45:30.492Z,44.83
2018-02-05T15:47:58.107Z,48.10
2018-02-05T15:50:25.693Z,41.80
2018-02-05T15:52:53.265Z,56.80
2018-02-05T15:55:20.903Z,54.80
2018-02-05T15:57:48.534Z,47.47
2018-02-05T16:00:16.096Z,58.33
2018-02-05T16:02:43.993Z,44.13
2018-02-05T16:05:11.613Z,54.30
2018-02-05T16:07:39.183Z,55.77
2018-02-05T16:10:06.810Z,73.90
2018-02-05T16:12:34.466Z,49.60
2018-02-05T16:15:02.083Z,102.50
2018-02-05T16:17:29.731Z,67.67
2018-02-05T16:19:57.299Z,59.40
2018-02-05T16:22:24.924Z,64.30
2018-02-05T16:24:52.520Z,97.73
2018-02-05T16:27:20.171Z,102.53
2018-02-05T16:29:47.753Z,72.17
2018-02-05T16:32:15.431Z,104.53
2018-02-05T16:34:43.077Z,99.93
2018-02-05T16:37:10.654Z,128.20
2018-02-05T16:39:38.282Z,137.17
2018-02-05T16:42:05.875Z,163.40
2018-02-05T16:44:33.458Z,197.60
2018-02-05T16:47:01.104Z,185.53
2018-02-05T16:49:28.739Z,195.03
2018-02-05T16:51:56.354Z,172.27
2018-02-05T16:54:23.930Z,166.63
2018-02-05T16:56:51.563Z,221.00
2018-02-05T16:59:19.190Z,128.97
2018-02-05T17:01:46.826Z,101.00
2018-02-05T17:04:14.414Z,129.50
2018-02-05T17:06:41.993Z,171.20
2018-02-05T17:09:09.580Z,165.67
2018-02-05T17:11:37.220Z,143.67
2018-02-05T17:14:04.854Z,152.57
2018-02-05T17:16:32.544Z,128.67
2018-02-05T17:19:00.187Z,127.60
2018-02-05T17:21:27.779Z,110.53
2018-02-05T17:23:55.616Z,106.33
2018-02-05T17:26:23.204Z,101.13
2018-02-05T17:28:50.826Z,120.60
2018-02-05T17:31:18.407Z,119.30
2018-02-05T17:33:46.031Z,136.80
2018-02-05T17:36:13.609Z,145.87
2018-02-05T17:38:41.247Z,134.93
2018-02-05T17:41:08.830Z,140.70
2018-02-05T17:43:36.437Z,144.80
2018-02-05T17:46:04.081Z,138.53
2018-02-05T17:48:31.659Z,128.00
2018-02-05T17:50:59.312Z,119.57
2018-02-05T17:53:26.904Z,128.57
2018-02-05T17:55:54.535Z,167.07
2018-02-05T17:58:22.126Z,155.90
2018-02-05T18:00:49.774Z,154.60
2018-02-05T18:03:17.381Z,177.87
2018-02-05T18:05:45.542Z,141.37
2018-02-05T18:08:13.176Z,139.83
2018-02-05T18:10:40.747Z,150.70
2018-02-05T18:13:08.378Z,140.13
2018-02-05T18:15:36.013Z,133.93
2018-02-05T18:18:03.600Z,127.43
2018-02-05T18:20:31.194Z,136.83
2018-02-05T18:22:59.113Z,135.03
2018-02-05T18:25:26.730Z,141.07
2018-02-05T18:27:54.366Z,123.37
2018-02-05T18:30:22.047Z,112.10
2018-02-05T18:32:49.629Z,124.33
2018-02-05T18:35:17.311Z,121.77
2018-02-05T18:37:44.890Z,126.37
2018-02-05T18:40:12.472Z,120.13
2018-02-05T18:42:40.113Z,145.40
2018-02-05T18:45:07.750Z,165.97
2018-02-05T18:47:35.335Z,143.07
2018-02-05T18:50:03.030Z,127.93
2018-02-05T18:52:30.618Z,120.23
2018-02-05T18:54:58.214Z,119.60
2018-02-05T18:57:25.788Z,138.93
2018-02-05T18:59:53.424Z,130.87
2018-02-05T19:02:22.891Z,125.27
2018-02-05T19:04:50.533Z,116.93
2018-02-05T19:07:18.140Z,116.53
2018-02-05T19:09:45.774Z,102.13
2018-02-05T19:12:13.363Z,90.70
2018-02-05T19:14:40.923Z,97.90
2018-02-05T19:17:08.542Z,109.50
2018-02-05T19:19:36.105Z,103.93
2018-02-05T19:22:03.730Z,104.27
2018-02-05T19:24:31.331Z,87.40
2018-02-05T19:26:58.911Z,98.10
2018-02-05T19:29:26.551Z,102.50
2018-02-05T19:31:54.167Z,100.07
2018-02-05T19:34:21.823Z,104.13
2018-02-05T19:36:49.395Z,113.63
2018-02-05T19:39:16.947Z,93.60
2018-02-05T19:41:44.531Z,107.80
2018-02-05T19:44:12.169Z,101.67
2018-02-05T19:46:39.807Z,117.33
2018-02-05T19:49:07.397Z,112.67
2018-02-05T19:51:35.122Z,124.63
2018-02-05T19:54:02.720Z,108.83
2018-02-05T19:56:30.298Z,83.17
2018-02-05T19:58:57.884Z,90.73
2018-02-05T20:01:25.519Z,105.10
2018-02-05T20:03:53.102Z,120.17
2018-02-05T20:06:20.729Z,124.37
2018-02-05T20:08:48.442Z,98.43
2018-02-05T20:11:16.014Z,82.73
2018-02-05T20:13:43.649Z,83.70
2018-02-05T20:16:11.221Z,64.93
2018-02-05T20:18:38.790Z,52.10
2018-02-05T20:21:06.409Z,53.50
2018-02-05T20:23:34.018Z,47.80
2018-02-05T20:26:01.727Z,54.17
2018-02-05T20:28:29.401Z,47.30
2018-02-05T20:30:57.028Z,55.87
2018-02-05T20:33:24.695Z,52.97
2018-02-05T20:35:53.208Z,49.53
2018-02-05T20:38:20.927Z,52.10
2018-02-05T20:40:48.561Z,70.60
2018-02-05T20:43:16.360Z,83.07
2018-02-05T20:45:43.934Z,78.33
2018-02-05T20:48:11.571Z,67.83
2018-02-05T20:50:39.213Z,69.73
2018-02-05T20:53:06.796Z,87.37
2018-02-05T20:55:34.377Z,87.20
2018-02-05T20:58:01.937Z,83.80
2018-02-05T21:00:29.631Z,78.80
2018-02-05T21:02:57.269Z,84.00
2018-02-05T21:05:24.842Z,84.03
2018-02-05T21:07:52.433Z,62.60
2018-02-05T21:10:20.069Z,64.67
2018-02-05T21:12:47.653Z,62.83
2018-02-05T21:15:15.286Z,64.00
2018-02-05T21:17:42.898Z,56.50
2018-02-05T21:20:10.469Z,79.37
2018-02-05T21:22:38.043Z,63.27
2018-02-05T21:25:05.619Z,86.27
2018-02-05T21:27:33.247Z,78.33
2018-02-05T21:30:00.827Z,69.63
2018-02-05T21:32:28.455Z,69.60
2018-02-05T21:34:56.072Z,59.30
2018-02-05T21:37:23.703Z,44.63
2018-02-05T21:39:51.331Z,52.93
2018-02-05T21:42:18.953Z,67.83
2018-02-05T21:44:46.578Z,65.80
2018-02-05T21:47:14.232Z,68.80
2018-02-05T21:49:41.863Z,72.47
2018-02-05T21:52:09.483Z,69.00
2018-02-05T21:54:37.051Z,73.77
2018-02-05T21:57:05.428Z,82.33
2018-02-05T21:59:33.018Z,91.57
2018-02-05T22:02:00.655Z,57.20
2018-02-05T22:04:28.296Z,53.03
2018-02-05T22:06:55.932Z,49.60
2018-02-05T22:09:23.564Z,49.37
2018-02-05T22:11:51.125Z,54.57
2018-02-05T22:14:18.781Z,38.13
2018-02-05T22:16:46.426Z,40.87
2018-02-05T22:19:14.041Z,41.43
2018-02-05T22:21:41.679Z,54.33
2018-02-05T22:24:09.245Z,52.33
2018-02-05T22:26:36.933Z,50.17
2018-02-05T22:29:04.505Z,52.87
2018-02-05T22:31:32.078Z,63.53
2018-02-05T22:33:59.716Z,59.30
2018-02-05T22:36:27.305Z,61.03
2018-02-05T22:38:54.934Z,66.57
2018-02-05T22:41:22.507Z,69.47
2018-02-05T22:43:50.209Z,74.77
2018-02-05T22:46:17.774Z,60.00
2018-02-05T22:48:45.346Z,63.90
2018-02-05T22:51:12.922Z,69.03
2018-02-05T22:53:40.497Z,49.97
2018-02-05T22:56:08.134Z,53.90
2018-02-05T22:58:35.764Z,48.70
2018-02-05T23:01:03.443Z,50.07
2018-02-05T23:03:31.014Z,48.80
2018-02-05T23:05:58.577Z,53.93
2018-02-05T23:08:26.228Z,45.70
2018-02-05T23:10:53.858Z,41.13
2018-02-05T23:13:21.444Z,38.67
2018-02-05T23:15:49.028Z,33.80
2018-02-05T23:18:16.651Z,38.87
2018-02-05T23:20:44.224Z,31.53
2018-02-05T23:23:11.786Z,35.37
2018-02-05T23:25:39.370Z,36.53
2018-02-05T23:28:06.920Z,39.90
2018-02-05T23:30:34.555Z,29.07
2018-02-05T23:33:02.196Z,26.80
2018-02-05T23:35:29.766Z,23.03
2018-02-05T23:37:57.393Z,30.80
2018-02-05T23:40:24.966Z,21.43
2018-02-05T23:42:52.591Z,19.20
2018-02-05T23:45:20.162Z,19.73
2018-02-05T23:47:47.746Z,22.77
2018-02-05T23:50:15.319Z,20.30
2018-02-05T23:52:42.884Z,21.13
2018-02-05T23:55:10.502Z,22.10
2018-02-05T23:57:38.071Z,25.73
